sensor_id;sensor_type;location;lat;lon;timestamp;pressure;altitude;pressure_sealevel;temperature;humidity
10064;BME280;5071;52.360;13.134;2023-03-21T00:02:28;101186.53;;;8.41;75.51
10064;BME280;5071;52.360;13.134;2023-03-21T00:07:31;101197.97;;;8.38;75.99
10064;BME280;5071;52.360;13.134;2023-03-21T00:12:34;101191.78;;;8.35;76.49
10064;BME280;5071;52.360;13.134;2023-03-21T00:17:36;101186.50;;;8.32;76.42
10064;BME280;5071;52.360;13.134;2023-03-21T00:22:38;101182.94;;;8.33;76.77
10064;BME280;5071;52.360;13.134;2023-03-21T00:27:42;101175.00;;;8.31;76.71
10064;BME280;5071;52.360;13.134;2023-03-21T00:33:04;101175.88;;;8.27;76.95
10064;BME280;5071;52.360;13.134;2023-03-21T00:38:23;101171.47;;;8.26;77.38
10064;BME280;5071;52.360;13.134;2023-03-21T00:43:29;101176.75;;;8.23;77.74
10064;BME280;5071;52.360;13.134;2023-03-21T00:48:32;101172.34;;;8.21;77.98
10064;BME280;5071;52.360;13.134;2023-03-21T00:53:34;101169.66;;;8.17;78.24
10064;BME280;5071;52.360;13.134;2023-03-21T00:58:37;101177.59;;;8.16;79.93
10064;BME280;5071;52.360;13.134;2023-03-21T01:03:39;101166.13;;;8.09;80.63
10064;BME280;5071;52.360;13.134;2023-03-21T01:08:42;101165.19;;;7.98;82.35
10064;BME280;5071;52.360;13.134;2023-03-21T01:13:55;101175.69;;;7.92;83.12
10064;BME280;5071;52.360;13.134;2023-03-21T01:19:20;101163.31;;;7.75;84.54
10064;BME280;5071;52.360;13.134;2023-03-21T01:24:32;101165.91;;;7.72;85.76
10064;BME280;5071;52.360;13.134;2023-03-21T01:29:39;101172.03;;;7.65;86.79
10064;BME280;5071;52.360;13.134;2023-03-21T01:34:41;101168.47;;;7.60;88.00
10064;BME280;5071;52.360;13.134;2023-03-21T01:39:44;101161.41;;;7.53;88.29
10064;BME280;5071;52.360;13.134;2023-03-21T01:44:54;101163.09;;;7.42;89.22
10064;BME280;5071;52.360;13.134;2023-03-21T01:49:58;101163.00;;;7.32;90.48
10064;BME280;5071;52.360;13.134;2023-03-21T01:55:02;101168.22;;;7.26;91.48
10064;BME280;5071;52.360;13.134;2023-03-21T02:00:08;101164.69;;;7.24;91.51
10064;BME280;5071;52.360;13.134;2023-03-21T02:05:10;101156.75;;;7.21;92.31
10064;BME280;5071;52.360;13.134;2023-03-21T02:10:14;101155.81;;;7.16;92.52
10064;BME280;5071;52.360;13.134;2023-03-21T02:15:19;101156.69;;;7.15;92.64
10064;BME280;5071;52.360;13.134;2023-03-21T02:20:43;101150.59;;;7.19;92.93
10064;BME280;5071;52.360;13.134;2023-03-21T02:26:16;101146.16;;;7.18;92.79
10064;BME280;5071;52.360;13.134;2023-03-21T02:31:35;101130.31;;;7.16;93.13
10064;BME280;5071;52.360;13.134;2023-03-21T02:36:52;101148.75;;;7.15;93.20
10064;BME280;5071;52.360;13.134;2023-03-21T02:42:05;101145.22;;;7.10;93.66
10064;BME280;5071;52.360;13.134;2023-03-21T02:47:11;101144.31;;;7.09;94.07
10064;BME280;5071;52.360;13.134;2023-03-21T02:52:19;101148.69;;;7.07;94.42
10064;BME280;5071;52.360;13.134;2023-03-21T02:57:43;101140.75;;;7.06;94.54
10064;BME280;5071;52.360;13.134;2023-03-21T03:02:47;101145.16;;;7.04;94.89
10064;BME280;5071;52.360;13.134;2023-03-21T03:08:10;101146.97;;;7.08;94.96
10064;BME280;5071;52.360;13.134;2023-03-21T03:13:26;101151.34;;;7.04;95.38
10064;BME280;5071;52.360;13.134;2023-03-21T03:18:40;101146.94;;;7.05;95.58
10064;BME280;5071;52.360;13.134;2023-03-21T03:23:51;101143.41;;;7.06;95.40
10064;BME280;5071;52.360;13.134;2023-03-21T03:28:57;101144.31;;;7.06;95.71
10064;BME280;5071;52.360;13.134;2023-03-21T03:34:04;101146.94;;;7.05;95.79
10064;BME280;5071;52.360;13.134;2023-03-21T03:39:11;101142.50;;;7.04;95.82
10064;BME280;5071;52.360;13.134;2023-03-21T03:44:14;101152.22;;;7.05;96.01
10064;BME280;5071;52.360;13.134;2023-03-21T03:49:20;101143.41;;;7.03;96.28
10064;BME280;5071;52.360;13.134;2023-03-21T03:54:27;101148.69;;;7.03;96.53
10064;BME280;5071;52.360;13.134;2023-03-21T03:59:33;101141.63;;;7.01;96.72
10064;BME280;5071;52.360;13.134;2023-03-21T04:04:35;101143.38;;;6.99;96.67
10064;BME280;5071;52.360;13.134;2023-03-21T04:09:39;101125.72;;;6.91;96.93
10064;BME280;5071;52.360;13.134;2023-03-21T04:14:45;101134.59;;;7.00;97.31
10064;BME280;5071;52.360;13.134;2023-03-21T04:19:48;101138.09;;;6.99;97.61
10064;BME280;5071;52.360;13.134;2023-03-21T04:24:55;101145.16;;;7.05;96.96
10064;BME280;5071;52.360;13.134;2023-03-21T04:29:57;101141.63;;;7.01;97.51
10064;BME280;5071;52.360;13.134;2023-03-21T04:35:00;101139.88;;;7.02;97.69
10064;BME280;5071;52.360;13.134;2023-03-21T04:40:05;101144.25;;;7.01;97.82
10064;BME280;5071;52.360;13.134;2023-03-21T04:45:07;101132.81;;;6.96;98.76
10064;BME280;5071;52.360;13.134;2023-03-21T04:50:13;101130.16;;;6.95;99.19
10064;BME280;5071;52.360;13.134;2023-03-21T04:55:19;101139.78;;;6.94;99.21
10064;BME280;5071;52.360;13.134;2023-03-21T05:00:22;101131.03;;;6.95;99.53
10064;BME280;5071;52.360;13.134;2023-03-21T05:05:24;101135.34;;;6.90;100.00
10064;BME280;5071;52.360;13.134;2023-03-21T05:10:28;101129.19;;;6.88;100.00
10064;BME280;5071;52.360;13.134;2023-03-21T05:15:30;101144.16;;;6.89;100.00
10064;BME280;5071;52.360;13.134;2023-03-21T05:20:32;101137.13;;;6.90;100.00
10064;BME280;5071;52.360;13.134;2023-03-21T05:25:38;101129.22;;;6.91;100.00
10064;BME280;5071;52.360;13.134;2023-03-21T05:30:41;101127.44;;;6.90;100.00
10064;BME280;5071;52.360;13.134;2023-03-21T05:35:43;101125.69;;;6.92;100.00
10064;BME280;5071;52.360;13.134;2023-03-21T05:40:47;101134.50;;;6.91;100.00
10064;BME280;5071;52.360;13.134;2023-03-21T05:45:57;101134.50;;;6.94;100.00
10064;BME280;5071;52.360;13.134;2023-03-21T05:50:59;101138.94;;;6.97;100.00
10064;BME280;5071;52.360;13.134;2023-03-21T05:56:04;101138.97;;;7.01;100.00
10064;BME280;5071;52.360;13.134;2023-03-21T06:01:06;101134.66;;;7.10;100.00
10064;BME280;5071;52.360;13.134;2023-03-21T06:06:09;101143.47;;;7.15;100.00
10064;BME280;5071;52.360;13.134;2023-03-21T06:11:19;101143.47;;;7.12;100.00
10064;BME280;5071;52.360;13.134;2023-03-21T06:16:24;101148.78;;;7.16;100.00
10064;BME280;5071;52.360;13.134;2023-03-21T06:21:26;101153.19;;;7.16;100.00
10064;BME280;5071;52.360;13.134;2023-03-21T06:26:30;101154.13;;;7.21;100.00
10064;BME280;5071;52.360;13.134;2023-03-21T06:31:32;101154.13;;;7.23;100.00
10064;BME280;5071;52.360;13.134;2023-03-21T06:36:34;101155.94;;;7.28;100.00
10064;BME280;5071;52.360;13.134;2023-03-21T06:41:37;101148.84;;;7.21;100.00
10064;BME280;5071;52.360;13.134;2023-03-21T06:46:40;101155.09;;;7.34;100.00
10064;BME280;5071;52.360;13.134;2023-03-21T06:51:42;101148.97;;;7.43;100.00
10064;BME280;5071;52.360;13.134;2023-03-21T06:56:46;101156.94;;;7.49;100.00
10064;BME280;5071;52.360;13.134;2023-03-21T07:01:48;101155.22;;;7.49;100.00
10064;BME280;5071;52.360;13.134;2023-03-21T07:06:50;101156.22;;;7.70;100.00
10064;BME280;5071;52.360;13.134;2023-03-21T07:11:54;101149.22;;;7.83;100.00
10064;BME280;5071;52.360;13.134;2023-03-21T07:16:56;101156.34;;;7.93;100.00
10064;BME280;5071;52.360;13.134;2023-03-21T07:21:59;101157.28;;;8.06;100.00
10064;BME280;5071;52.360;13.134;2023-03-21T07:27:02;101158.22;;;8.17;100.00
10064;BME280;5071;52.360;13.134;2023-03-21T07:32:03;101163.53;;;8.25;100.00
10064;BME280;5071;52.360;13.134;2023-03-21T07:37:05;101156.47;;;8.24;100.00
10064;BME280;5071;52.360;13.134;2023-03-21T07:42:09;101147.59;;;8.12;100.00
10064;BME280;5071;52.360;13.134;2023-03-21T07:47:12;101163.53;;;8.18;100.00
10064;BME280;5071;52.360;13.134;2023-03-21T07:52:14;101163.50;;;8.22;100.00
10064;BME280;5071;52.360;13.134;2023-03-21T07:57:18;101162.69;;;8.35;100.00
10064;BME280;5071;52.360;13.134;2023-03-21T08:02:19;101158.38;;;8.57;99.46
10064;BME280;5071;52.360;13.134;2023-03-21T08:07:22;101150.47;;;8.66;99.03
10064;BME280;5071;52.360;13.134;2023-03-21T08:12:25;101153.13;;;8.80;98.65
10064;BME280;5071;52.360;13.134;2023-03-21T08:17:28;101150.50;;;8.83;97.75
10064;BME280;5071;52.360;13.134;2023-03-21T08:22:32;101153.13;;;8.89;98.40
10064;BME280;5071;52.360;13.134;2023-03-21T08:27:37;101162.84;;;8.83;97.39
10064;BME280;5071;52.360;13.134;2023-03-21T08:32:40;101155.81;;;9.03;96.72
10064;BME280;5071;52.360;13.134;2023-03-21T08:37:42;101156.69;;;9.01;96.20
10064;BME280;5071;52.360;13.134;2023-03-21T08:42:46;101154.03;;;9.02;96.29
10064;BME280;5071;52.360;13.134;2023-03-21T08:47:48;101159.34;;;9.02;96.60
10064;BME280;5071;52.360;13.134;2023-03-21T08:52:50;101154.94;;;9.06;96.24
10064;BME280;5071;52.360;13.134;2023-03-21T08:57:54;101159.34;;;9.22;95.13
10064;BME280;5071;52.360;13.134;2023-03-21T09:02:57;101155.81;;;9.37;94.86
10064;BME280;5071;52.360;13.134;2023-03-21T09:07:59;101157.53;;;9.58;94.49
10064;BME280;5071;52.360;13.134;2023-03-21T09:13:03;101155.78;;;9.60;94.27
10064;BME280;5071;52.360;13.134;2023-03-21T09:18:06;101160.16;;;9.86;93.15
10064;BME280;5071;52.360;13.134;2023-03-21T09:23:08;101154.84;;;9.86;91.79
10064;BME280;5071;52.360;13.134;2023-03-21T09:28:12;101154.88;;;9.77;92.50
10064;BME280;5071;52.360;13.134;2023-03-21T09:33:14;101161.88;;;10.02;93.32
10064;BME280;5071;52.360;13.134;2023-03-21T09:38:16;101162.66;;;10.32;90.50
10064;BME280;5071;52.360;13.134;2023-03-21T09:43:32;101152.97;;;10.16;90.00
10064;BME280;5071;52.360;13.134;2023-03-21T09:48:43;101145.03;;;10.14;90.24
10064;BME280;5071;52.360;13.134;2023-03-21T09:54:01;101151.22;;;10.05;90.08
10064;BME280;5071;52.360;13.134;2023-03-21T09:59:07;101155.59;;;10.17;90.16
10064;BME280;5071;52.360;13.134;2023-03-21T10:04:13;101152.81;;;10.56;89.08
10064;BME280;5071;52.360;13.134;2023-03-21T10:09:17;101135.84;;;10.80;88.05
10064;BME280;5071;52.360;13.134;2023-03-21T10:14:24;101125.44;;;11.54;84.30
10064;BME280;5071;52.360;13.134;2023-03-21T10:19:28;101126.53;;;11.33;83.52
10064;BME280;5071;52.360;13.134;2023-03-21T10:24:32;101128.47;;;11.16;84.40
10064;BME280;5071;52.360;13.134;2023-03-21T10:29:40;101115.13;;;11.25;84.47
10064;BME280;5071;52.360;13.134;2023-03-21T10:34:46;101111.44;;;11.37;83.13
10064;BME280;5071;52.360;13.134;2023-03-21T10:39:50;101113.06;;;11.55;83.26
10064;BME280;5071;52.360;13.134;2023-03-21T10:44:55;101109.47;;;11.57;82.30
10064;BME280;5071;52.360;13.134;2023-03-21T10:50:01;101108.59;;;11.57;82.63
10064;BME280;5071;52.360;13.134;2023-03-21T10:55:17;101112.16;;;11.54;81.76
10064;BME280;5071;52.360;13.134;2023-03-21T11:00:24;101108.69;;;11.49;81.61
10064;BME280;5071;52.360;13.134;2023-03-21T11:05:34;101092.78;;;12.22;80.43
10064;BME280;5071;52.360;13.134;2023-03-21T11:10:51;101098.78;;;12.36;77.69
10064;BME280;5071;52.360;13.134;2023-03-21T11:15:57;101087.41;;;12.25;78.66
10064;BME280;5071;52.360;13.134;2023-03-21T11:21:06;101083.88;;;12.23;79.59
10064;BME280;5071;52.360;13.134;2023-03-21T11:26:11;101071.00;;;12.56;78.14
10064;BME280;5071;52.360;13.134;2023-03-21T11:31:19;101076.25;;;12.60;77.51
10064;BME280;5071;52.360;13.134;2023-03-21T11:36:32;101063.31;;;12.92;76.14
10064;BME280;5071;52.360;13.134;2023-03-21T11:41:38;101060.41;;;12.51;77.09
10064;BME280;5071;52.360;13.134;2023-03-21T11:46:42;101053.28;;;12.52;78.03
10064;BME280;5071;52.360;13.134;2023-03-21T11:51:48;101056.56;;;12.71;76.96
10064;BME280;5071;52.360;13.134;2023-03-21T11:56:55;101051.69;;;12.41;78.09
10064;BME280;5071;52.360;13.134;2023-03-21T12:02:24;101055.16;;;12.47;77.24
10064;BME280;5071;52.360;13.134;2023-03-21T12:07:39;101048.72;;;12.61;77.17
10064;BME280;5071;52.360;13.134;2023-03-21T12:12:51;101036.44;;;12.51;76.77
10064;BME280;5071;52.360;13.134;2023-03-21T12:18:02;101023.38;;;12.34;78.15
10064;BME280;5071;52.360;13.134;2023-03-21T12:23:18;101025.16;;;12.35;78.68
10064;BME280;5071;52.360;13.134;2023-03-21T12:28:32;101015.63;;;12.19;79.17
10064;BME280;5071;52.360;13.134;2023-03-21T12:34:02;101010.19;;;12.28;78.77
10064;BME280;5071;52.360;13.134;2023-03-21T12:39:16;101009.13;;;12.38;79.40
10064;BME280;5071;52.360;13.134;2023-03-21T12:44:21;101007.66;;;12.19;78.45
10064;BME280;5071;52.360;13.134;2023-03-21T12:49:29;101003.09;;;12.27;78.60
10064;BME280;5071;52.360;13.134;2023-03-21T12:54:36;100998.44;;;12.41;77.63
10064;BME280;5071;52.360;13.134;2023-03-21T12:59:44;100990.84;;;12.71;77.03
10064;BME280;5071;52.360;13.134;2023-03-21T13:04:55;100980.22;;;12.70;76.24
10064;BME280;5071;52.360;13.134;2023-03-21T13:10:05;100980.41;;;12.59;76.21
10064;BME280;5071;52.360;13.134;2023-03-21T13:15:31;100972.38;;;12.60;76.75
10064;BME280;5071;52.360;13.134;2023-03-21T13:20:43;100970.59;;;12.61;77.46
10064;BME280;5071;52.360;13.134;2023-03-21T13:25:48;100961.06;;;12.48;77.87
10064;BME280;5071;52.360;13.134;2023-03-21T13:30:51;100954.69;;;12.58;77.40
10064;BME280;5071;52.360;13.134;2023-03-21T13:35:58;100955.91;;;12.90;77.20
10064;BME280;5071;52.360;13.134;2023-03-21T13:41:06;100954.94;;;12.94;76.31
10064;BME280;5071;52.360;13.134;2023-03-21T13:46:11;100942.56;;;12.90;75.99
10064;BME280;5071;52.360;13.134;2023-03-21T13:51:18;100944.34;;;12.89;75.91
10064;BME280;5071;52.360;13.134;2023-03-21T13:56:48;100933.84;;;13.27;75.11
10064;BME280;5071;52.360;13.134;2023-03-21T14:01:59;100936.16;;;13.45;74.19
10064;BME280;5071;52.360;13.134;2023-03-21T14:07:08;100929.00;;;13.47;74.23
10064;BME280;5071;52.360;13.134;2023-03-21T14:12:14;100935.63;;;13.26;75.02
10064;BME280;5071;52.360;13.134;2023-03-21T14:17:21;100927.78;;;13.18;75.75
10064;BME280;5071;52.360;13.134;2023-03-21T14:22:25;100924.53;;;13.04;76.65
10064;BME280;5071;52.360;13.134;2023-03-21T14:27:30;100928.19;;;12.97;77.10
10064;BME280;5071;52.360;13.134;2023-03-21T14:32:34;100909.84;;;12.81;77.77
10064;BME280;5071;52.360;13.134;2023-03-21T14:37:39;100913.63;;;12.70;78.26
10064;BME280;5071;52.360;13.134;2023-03-21T14:42:45;100901.16;;;12.72;78.50
10064;BME280;5071;52.360;13.134;2023-03-21T14:47:55;100891.44;;;12.71;79.39
10064;BME280;5071;52.360;13.134;2023-03-21T14:52:59;100886.81;;;12.79;78.25
10064;BME280;5071;52.360;13.134;2023-03-21T14:58:01;100886.69;;;12.85;77.61
10064;BME280;5071;52.360;13.134;2023-03-21T15:03:07;100878.72;;;12.83;77.98
10064;BME280;5071;52.360;13.134;2023-03-21T15:08:16;100877.78;;;12.88;78.22
10064;BME280;5071;52.360;13.134;2023-03-21T15:13:19;100875.34;;;12.77;78.55
10064;BME280;5071;52.360;13.134;2023-03-21T15:18:25;100867.41;;;12.72;78.59
10064;BME280;5071;52.360;13.134;2023-03-21T15:23:32;100860.25;;;12.74;79.11
10064;BME280;5071;52.360;13.134;2023-03-21T15:28:35;100860.50;;;12.63;79.66
10064;BME280;5071;52.360;13.134;2023-03-21T15:33:38;100862.31;;;12.61;79.96
10064;BME280;5071;52.360;13.134;2023-03-21T15:38:42;100850.97;;;12.50;80.04
10064;BME280;5071;52.360;13.134;2023-03-21T15:43:45;100842.94;;;12.52;80.11
10064;BME280;5071;52.360;13.134;2023-03-21T15:48:47;100845.44;;;12.61;80.46
10064;BME280;5071;52.360;13.134;2023-03-21T15:53:52;100835.41;;;12.74;80.47
10064;BME280;5071;52.360;13.134;2023-03-21T15:58:54;100821.09;;;12.79;79.83
10064;BME280;5071;52.360;13.134;2023-03-21T16:03:57;100822.84;;;12.82;79.84
10064;BME280;5071;52.360;13.134;2023-03-21T16:09:09;100819.59;;;12.66;79.68
10064;BME280;5071;52.360;13.134;2023-03-21T16:14:13;100806.22;;;12.69;79.59
10064;BME280;5071;52.360;13.134;2023-03-21T16:19:15;100817.06;;;12.60;80.21
10064;BME280;5071;52.360;13.134;2023-03-21T16:24:19;100826.19;;;12.47;80.41
10064;BME280;5071;52.360;13.134;2023-03-21T16:29:21;100824.69;;;12.33;80.94
10064;BME280;5071;52.360;13.134;2023-03-21T16:34:23;100833.56;;;12.32;81.73
10064;BME280;5071;52.360;13.134;2023-03-21T16:39:27;100823.91;;;12.27;82.22
10064;BME280;5071;52.360;13.134;2023-03-21T16:44:29;100823.06;;;12.23;82.47
10064;BME280;5071;52.360;13.134;2023-03-21T16:49:31;100826.56;;;12.27;82.73
10064;BME280;5071;52.360;13.134;2023-03-21T16:54:35;100819.53;;;12.22;82.70
10064;BME280;5071;52.360;13.134;2023-03-21T16:59:37;100813.44;;;12.16;82.81
10064;BME280;5071;52.360;13.134;2023-03-21T17:04:39;100810.88;;;12.10;82.91
10064;BME280;5071;52.360;13.134;2023-03-21T17:09:43;100812.00;;;11.96;83.64
10064;BME280;5071;52.360;13.134;2023-03-21T17:14:45;100800.59;;;11.90;83.95
10064;BME280;5071;52.360;13.134;2023-03-21T17:19:47;100805.09;;;11.84;84.26
10064;BME280;5071;52.360;13.134;2023-03-21T17:24:50;100804.25;;;11.82;84.64
10064;BME280;5071;52.360;13.134;2023-03-21T17:29:53;100795.47;;;11.76;84.99
10064;BME280;5071;52.360;13.134;2023-03-21T17:34:55;100792.03;;;11.69;85.16
10064;BME280;5071;52.360;13.134;2023-03-21T17:39:58;100783.38;;;11.56;85.59
10064;BME280;5071;52.360;13.134;2023-03-21T17:45:00;100788.78;;;11.50;86.44
10064;BME280;5071;52.360;13.134;2023-03-21T17:50:03;100786.13;;;11.48;86.89
10064;BME280;5071;52.360;13.134;2023-03-21T17:55:07;100788.00;;;11.45;87.01
10064;BME280;5071;52.360;13.134;2023-03-21T18:00:13;100788.00;;;11.43;87.01
10064;BME280;5071;52.360;13.134;2023-03-21T18:05:16;100783.59;;;11.41;87.36
10064;BME280;5071;52.360;13.134;2023-03-21T18:10:23;100790.69;;;11.42;87.28
10064;BME280;5071;52.360;13.134;2023-03-21T18:15:26;100785.41;;;11.39;87.35
10064;BME280;5071;52.360;13.134;2023-03-21T18:20:31;100794.28;;;11.38;88.00
10064;BME280;5071;52.360;13.134;2023-03-21T18:25:54;100793.38;;;11.39;87.33
10064;BME280;5071;52.360;13.134;2023-03-21T18:30:56;100788.09;;;11.37;87.77
10064;BME280;5071;52.360;13.134;2023-03-21T18:36:14;100801.34;;;11.39;87.82
10064;BME280;5071;52.360;13.134;2023-03-21T18:41:18;100801.44;;;11.34;88.26
10064;BME280;5071;52.360;13.134;2023-03-21T18:46:21;100805.94;;;11.29;88.42
10064;BME280;5071;52.360;13.134;2023-03-21T18:51:23;100808.59;;;11.27;88.81
10064;BME280;5071;52.360;13.134;2023-03-21T18:56:27;100800.69;;;11.24;89.47
10064;BME280;5071;52.360;13.134;2023-03-21T19:01:49;100809.53;;;11.25;89.42
10064;BME280;5071;52.360;13.134;2023-03-21T19:06:51;100800.72;;;11.21;89.65
10064;BME280;5071;52.360;13.134;2023-03-21T19:11:55;100795.44;;;11.20;90.00
10064;BME280;5071;52.360;13.134;2023-03-21T19:16:58;100793.69;;;11.17;89.99
10064;BME280;5071;52.360;13.134;2023-03-21T19:22:21;100787.31;;;11.31;91.33
10064;BME280;5071;52.360;13.134;2023-03-21T19:27:28;100789.84;;;11.38;89.97
10064;BME280;5071;52.360;13.134;2023-03-21T19:32:30;100794.28;;;11.38;90.28
10064;BME280;5071;52.360;13.134;2023-03-21T19:37:33;100796.84;;;11.45;90.01
10064;BME280;5071;52.360;13.134;2023-03-21T19:42:37;100796.06;;;11.37;91.06
10064;BME280;5071;52.360;13.134;2023-03-21T19:47:39;100787.34;;;11.27;91.71
10064;BME280;5071;52.360;13.134;2023-03-21T19:52:42;100798.06;;;11.21;92.89
10064;BME280;5071;52.360;13.134;2023-03-21T19:57:45;100788.53;;;11.05;94.96
10064;BME280;5071;52.360;13.134;2023-03-21T20:02:49;100793.88;;;11.03;96.43
10064;BME280;5071;52.360;13.134;2023-03-21T20:07:51;100793.03;;;11.00;97.68
10064;BME280;5071;52.360;13.134;2023-03-21T20:12:55;100794.84;;;10.98;98.44
10064;BME280;5071;52.360;13.134;2023-03-21T20:17:57;100794.06;;;10.89;99.00
10064;BME280;5071;52.360;13.134;2023-03-21T20:22:59;100795.84;;;10.89;99.64
10064;BME280;5071;52.360;13.134;2023-03-21T20:28:13;100803.81;;;10.91;100.00
10064;BME280;5071;52.360;13.134;2023-03-21T20:33:26;100799.34;;;10.93;100.00
10064;BME280;5071;52.360;13.134;2023-03-21T20:38:28;100798.66;;;10.75;100.00
10064;BME280;5071;52.360;13.134;2023-03-21T20:43:32;100786.22;;;10.80;100.00
10064;BME280;5071;52.360;13.134;2023-03-21T20:48:54;100782.78;;;10.72;100.00
10064;BME280;5071;52.360;13.134;2023-03-21T20:53:56;100771.25;;;10.75;100.00
10064;BME280;5071;52.360;13.134;2023-03-21T20:58:59;100775.78;;;10.65;100.00
10064;BME280;5071;52.360;13.134;2023-03-21T21:04:18;100769.63;;;10.64;100.00
10064;BME280;5071;52.360;13.134;2023-03-21T21:09:20;100775.72;;;10.71;100.00
10064;BME280;5071;52.360;13.134;2023-03-21T21:14:23;100774.00;;;10.67;100.00
10064;BME280;5071;52.360;13.134;2023-03-21T21:19:25;100778.44;;;10.66;100.00
10064;BME280;5071;52.360;13.134;2023-03-21T21:24:27;100770.50;;;10.65;100.00
10064;BME280;5071;52.360;13.134;2023-03-21T21:29:31;100767.75;;;10.71;100.00
10064;BME280;5071;52.360;13.134;2023-03-21T21:34:33;100766.03;;;10.68;100.00
10064;BME280;5071;52.360;13.134;2023-03-21T21:39:35;100759.88;;;10.65;100.00
10064;BME280;5071;52.360;13.134;2023-03-21T21:44:39;100770.56;;;10.59;100.00
10064;BME280;5071;52.360;13.134;2023-03-21T21:49:41;100765.28;;;10.56;100.00
10064;BME280;5071;52.360;13.134;2023-03-21T21:54:43;100758.19;;;10.58;100.00
10064;BME280;5071;52.360;13.134;2023-03-21T21:59:47;100756.50;;;10.50;100.00
10064;BME280;5071;52.360;13.134;2023-03-21T22:04:52;100754.81;;;10.43;100.00
10064;BME280;5071;52.360;13.134;2023-03-21T22:09:54;100769.09;;;10.33;100.00
10064;BME280;5071;52.360;13.134;2023-03-21T22:14:58;100766.47;;;10.25;100.00
10064;BME280;5071;52.360;13.134;2023-03-21T22:20:00;100760.25;;;10.28;100.00
10064;BME280;5071;52.360;13.134;2023-03-21T22:25:10;100751.50;;;10.20;100.00
10064;BME280;5071;52.360;13.134;2023-03-21T22:30:14;100751.53;;;10.17;100.00
10064;BME280;5071;52.360;13.134;2023-03-21T22:35:16;100743.66;;;10.07;100.00
10064;BME280;5071;52.360;13.134;2023-03-21T22:40:18;100741.88;;;10.11;100.00
10064;BME280;5071;52.360;13.134;2023-03-21T22:45:22;100748.03;;;10.15;100.00
10064;BME280;5071;52.360;13.134;2023-03-21T22:50:24;100748.03;;;10.11;100.00
10064;BME280;5071;52.360;13.134;2023-03-21T22:55:26;100751.63;;;10.06;100.00
10064;BME280;5071;52.360;13.134;2023-03-21T23:00:29;100739.28;;;10.05;100.00
10064;BME280;5071;52.360;13.134;2023-03-21T23:05:32;100729.53;;;10.05;100.00
10064;BME280;5071;52.360;13.134;2023-03-21T23:10:35;100739.31;;;10.00;100.00
10064;BME280;5071;52.360;13.134;2023-03-21T23:15:40;100747.28;;;10.00;100.00
10064;BME280;5071;52.360;13.134;2023-03-21T23:20:42;100746.41;;;9.98;100.00
10064;BME280;5071;52.360;13.134;2023-03-21T23:25:43;100729.59;;;10.02;100.00
10064;BME280;5071;52.360;13.134;2023-03-21T23:30:47;100725.19;;;10.01;100.00
10064;BME280;5071;52.360;13.134;2023-03-21T23:35:49;100721.69;;;9.96;100.00
10064;BME280;5071;52.360;13.134;2023-03-21T23:40:50;100714.78;;;9.80;100.00
10064;BME280;5071;52.360;13.134;2023-03-21T23:45:54;100718.41;;;9.69;100.00
10064;BME280;5071;52.360;13.134;2023-03-21T23:50:57;100719.34;;;9.64;100.00
10064;BME280;5071;52.360;13.134;2023-03-21T23:55:59;100711.47;;;9.56;100.00
